Time;durP1;ratioP1;P1;durP2;ratioP2;P2;SDS_P1;SDS_P2;PMS_P1;PMS_P2;Temp;Humidity;BMP_temperature;BMP_pressure;BME280_temperature;BME280_humidity;BME280_pressure;Samples;Min_cycle;Max_cycle;Signal;HPM_P1;HPM_P2
2022/06/12 00:00:43;;;;;;;7.10;4.60;;;;;;;12.26;87.31;102120.97;5012368;28;20437;-43
2022/06/12 00:03:15;;;;;;;18.80;5.47;;;;;;;12.24;87.84;102124.81;5012511;28;20441;-43
2022/06/12 00:05:47;;;;;;;10.97;5.87;;;;;;;12.20;87.70;102121.66;5012849;28;20429;-43
2022/06/12 00:08:15;;;;;;;8.30;4.93;;;;;;;12.18;87.73;102126.34;5012251;28;20471;-44
2022/06/12 00:10:46;;;;;;;5.67;5.17;;;;;;;12.16;87.72;102125.66;5012245;28;20842;-43
2022/06/12 00:13:17;;;;;;;9.30;4.70;;;;;;;12.14;88.10;102127.69;5012438;28;20437;-45
2022/06/12 00:15:44;;;;;;;10.90;5.30;;;;;;;12.12;88.08;102124.38;5012378;28;20472;-42
2022/06/12 00:18:12;;;;;;;7.67;4.70;;;;;;;12.09;88.29;102127.38;5012044;28;21002;-44
2022/06/12 00:20:40;;;;;;;14.50;7.10;;;;;;;12.06;88.13;102131.25;5012237;28;20429;-45
2022/06/12 00:23:12;;;;;;;6.63;5.10;;;;;;;12.03;88.32;102128.06;5012265;28;20436;-42
2022/06/12 00:25:40;;;;;;;11.23;5.40;;;;;;;11.99;88.42;102134.75;5012437;28;20421;-42
2022/06/12 00:28:08;;;;;;;7.10;5.60;;;;;;;11.96;88.23;102133.28;5011640;28;20461;-43
2022/06/12 00:30:37;;;;;;;9.97;5.53;;;;;;;11.93;88.19;102138.13;5011716;28;20547;-43
2022/06/12 00:33:05;;;;;;;8.50;4.70;;;;;;;11.90;88.49;102141.13;5003888;28;20439;-46
2022/06/12 00:35:35;;;;;;;9.97;5.23;;;;;;;11.86;88.36;102131.78;5012302;28;20429;-45
2022/06/12 00:38:04;;;;;;;15.53;5.53;;;;;;;11.82;88.31;102134.00;5011867;28;20467;-44
2022/06/12 00:40:33;;;;;;;8.10;4.47;;;;;;;11.79;88.66;102133.50;5011765;28;20433;-46
2022/06/12 00:43:03;;;;;;;10.77;5.97;;;;;;;11.74;88.79;102130.50;5012021;28;20464;-42
2022/06/12 00:45:45;;;;;;;13.20;5.30;;;;;;;11.70;89.03;102129.16;5012044;28;20429;-43
2022/06/12 00:48:18;;;;;;;5.73;4.40;;;;;;;11.68;89.02;102121.28;5011734;28;20473;-43
2022/06/12 00:50:58;;;;;;;8.60;4.93;;;;;;;11.65;89.50;102118.94;5011657;28;20481;-46
2022/06/12 00:53:29;;;;;;;5.47;4.97;;;;;;;11.64;89.76;102127.97;5011940;28;20806;-44
2022/06/12 00:56:04;;;;;;;8.70;6.10;;;;;;;11.63;89.96;102127.13;5012155;28;20429;-45
2022/06/12 00:58:37;;;;;;;8.13;5.70;;;;;;;11.62;90.12;102125.47;5011591;28;20464;-43
2022/06/12 01:01:08;;;;;;;15.90;5.87;;;;;;;11.61;90.17;102115.78;5011930;28;20482;-45
2022/06/12 01:06:33;;;;;;;8.50;5.73;;;;;;;11.60;90.18;102121.28;5011776;28;21058;-44
2022/06/12 01:06:35;;;;;;;10.27;5.97;;;;;;;11.56;90.08;102123.47;5012073;28;20938;-43
2022/06/12 01:09:11;;;;;;;16.07;6.47;;;;;;;11.52;90.65;102115.97;5011356;28;20878;-45
2022/06/12 01:11:44;;;;;;;16.83;6.00;;;;;;;11.48;90.91;102112.78;5011637;28;20452;-43
2022/06/12 01:14:16;;;;;;;13.53;5.67;;;;;;;11.47;90.93;102121.81;5011668;28;20447;-45
2022/06/12 01:16:46;;;;;;;9.30;5.30;;;;;;;11.43;90.80;102112.47;5012129;28;20433;-43
2022/06/12 01:19:23;;;;;;;9.00;5.40;;;;;;;11.41;91.20;102127.81;5011458;28;20469;-47
2022/06/12 01:22:27;;;;;;;10.73;5.20;;;;;;;11.39;91.50;102119.16;5001797;28;20452;-43
2022/06/12 01:25:13;;;;;;;13.67;5.40;;;;;;;11.35;91.90;102122.34;4983881;28;20442;-43
2022/06/12 01:28:12;;;;;;;10.23;5.60;;;;;;;11.34;91.80;102128.69;5015307;28;20463;-43
2022/06/12 01:30:48;;;;;;;10.67;5.60;;;;;;;11.31;91.76;102113.00;5014919;28;20503;-43
2022/06/12 01:33:22;;;;;;;25.97;6.90;;;;;;;11.28;91.55;102122.19;5006910;28;20448;-44
2022/06/12 01:35:58;;;;;;;11.63;5.80;;;;;;;11.25;91.66;102106.47;5015626;28;20479;-46
2022/06/12 01:38:35;;;;;;;10.50;6.40;;;;;;;11.22;92.04;102112.16;5015137;28;20460;-44
2022/06/12 01:41:11;;;;;;;12.00;5.40;;;;;;;11.19;92.03;102104.47;5014961;28;20447;-43
2022/06/12 01:43:47;;;;;;;9.33;5.80;;;;;;;11.16;92.08;102104.81;5015320;28;20929;-48
2022/06/12 01:46:20;;;;;;;7.20;4.87;;;;;;;11.11;92.31;102091.13;5015432;28;20436;-43
2022/06/12 01:48:55;;;;;;;12.37;5.97;;;;;;;11.07;92.31;102100.47;5014796;28;20468;-43
2022/06/12 01:51:31;;;;;;;11.00;6.00;;;;;;;11.06;93.13;102093.47;5014684;28;20476;-43
2022/06/12 01:54:04;;;;;;;9.17;5.47;;;;;;;11.04;93.16;102096.31;5015312;28;20424;-44
2022/06/12 01:56:44;;;;;;;11.10;6.03;;;;;;;11.05;93.51;102086.47;5015194;28;20429;-45
2022/06/12 01:59:17;;;;;;;11.20;5.70;;;;;;;11.03;93.67;102093.78;5014694;28;21009;-45
2022/06/12 02:01:52;;;;;;;15.20;6.37;;;;;;;11.03;93.66;102091.13;5014822;28;20449;-47
2022/06/12 02:04:28;;;;;;;10.27;6.23;;;;;;;11.01;93.57;102075.28;5015038;28;20579;-44
2022/06/12 02:07:03;;;;;;;14.40;6.03;;;;;;;11.03;93.42;102075.09;5014884;28;20428;-45
2022/06/12 02:09:37;;;;;;;14.57;5.90;;;;;;;11.06;93.67;102077.44;5014266;28;20476;-43
2022/06/12 02:15:01;;;;;;;17.13;7.43;;;;;;;11.02;93.57;102081.47;5014900;28;20425;-44
2022/06/12 02:17:36;;;;;;;11.67;5.47;;;;;;;11.02;93.17;102068.13;5014487;28;20439;-44
2022/06/12 02:20:09;;;;;;;11.33;6.03;;;;;;;11.00;93.58;102070.94;5014706;28;20429;-44
2022/06/12 02:22:40;;;;;;;12.10;5.60;;;;;;;10.99;93.53;102071.13;5014719;28;20456;-45
2022/06/12 02:25:14;;;;;;;12.60;5.97;;;;;;;11.00;93.70;102068.28;5014458;28;20802;-44
2022/06/12 02:27:45;;;;;;;10.43;6.10;;;;;;;11.00;93.87;102065.59;5014411;28;20468;-43
2022/06/12 02:30:17;;;;;;;16.00;6.97;;;;;;;11.02;93.96;102065.44;5014373;28;20480;-43
2022/06/12 02:32:52;;;;;;;13.27;6.10;;;;;;;11.00;94.10;102060.25;5007541;28;20458;-44
2022/06/12 02:35:26;;;;;;;9.57;6.27;;;;;;;11.01;94.16;102061.09;5013573;28;20432;-44
2022/06/12 02:37:57;;;;;;;15.57;6.70;;;;;;;11.01;93.96;102072.63;5013428;28;20463;-43
2022/06/12 02:40:29;;;;;;;7.00;5.40;;;;;;;11.02;94.61;102073.47;5013969;28;20422;-43
2022/06/12 02:42:59;;;;;;;10.53;5.50;;;;;;;11.04;94.65;102074.13;5014296;28;20441;-44
2022/06/12 02:45:33;;;;;;;9.33;6.00;;;;;;;11.06;94.47;102072.09;5014298;28;20791;-43
2022/06/12 02:48:02;;;;;;;9.20;5.63;;;;;;;11.06;94.76;102064.94;5013633;28;20815;-46
2022/06/12 02:50:37;;;;;;;12.30;5.97;;;;;;;11.10;94.85;102071.63;5014086;28;20472;-43
2022/06/12 02:53:19;;;;;;;12.30;5.63;;;;;;;11.13;94.71;102070.44;5014088;28;20436;-44
2022/06/12 02:55:54;;;;;;;15.90;7.57;;;;;;;11.18;94.84;102069.94;5014223;28;20941;-44
2022/06/12 02:58:34;;;;;;;13.10;6.70;;;;;;;11.22;94.71;102063.25;5013440;28;20460;-43
2022/06/12 03:01:07;;;;;;;12.20;6.90;;;;;;;11.26;94.95;102062.75;5031039;23;20477;-47
2022/06/12 03:03:44;;;;;;;10.53;6.77;;;;;;;11.33;94.83;102062.91;5000806;28;20430;-49
2022/06/12 03:06:13;;;;;;;12.93;7.13;;;;;;;11.37;94.82;102057.06;4994193;28;20962;-48
2022/06/12 03:08:43;;;;;;;14.83;5.87;;;;;;;11.47;95.28;102056.84;4993646;28;20470;-50
2022/06/12 03:11:15;;;;;;;13.87;6.40;;;;;;;11.55;95.28;102054.19;4994078;28;20560;-50
2022/06/12 03:13:43;;;;;;;14.20;7.00;;;;;;;11.62;95.33;102049.81;4994265;28;20444;-50
2022/06/12 03:16:16;;;;;;;15.27;7.80;;;;;;;11.72;95.45;102045.13;4994087;28;20450;-47
2022/06/12 03:18:49;;;;;;;15.07;7.33;;;;;;;11.80;94.93;102049.63;4993518;28;20462;-48
2022/06/12 03:21:25;;;;;;;17.33;8.03;;;;;;;11.87;94.76;102050.59;4993493;28;20450;-50
2022/06/12 03:24:13;;;;;;;11.30;7.10;;;;;;;11.95;94.91;102045.22;4993963;28;20441;-47
2022/06/12 03:26:52;;;;;;;19.47;7.97;;;;;;;12.47;95.34;102048.94;4993798;28;20432;-50
2022/06/12 03:29:33;;;;;;;15.90;7.60;;;;;;;13.17;96.35;102046.09;4993242;28;20496;-49
2022/06/12 03:32:09;;;;;;;9.27;6.00;;;;;;;13.56;95.14;102049.34;4992497;28;20484;-49
2022/06/12 03:34:46;;;;;;;14.60;7.40;;;;;;;13.53;92.01;102049.72;4987743;28;20433;-47
2022/06/12 03:37:23;;;;;;;16.90;7.40;;;;;;;13.56;90.62;102053.91;4993648;28;20923;-47
2022/06/12 03:40:02;;;;;;;11.47;6.53;;;;;;;13.57;89.85;102056.38;4993586;28;20444;-47
2022/06/12 03:42:35;;;;;;;13.90;6.73;;;;;;;13.57;89.00;102044.81;4993429;28;20888;-47
2022/06/12 03:45:08;;;;;;;9.80;5.93;;;;;;;13.56;88.01;102043.97;4993614;28;20429;-48
2022/06/12 03:47:44;;;;;;;12.03;7.00;;;;;;;13.54;87.60;102046.03;4992716;28;20561;-46
2022/06/12 03:50:18;;;;;;;9.43;6.03;;;;;;;13.50;87.60;102046.59;4993186;28;20777;-46
2022/06/12 03:52:55;;;;;;;17.77;6.33;;;;;;;13.44;87.02;102040.09;4993534;28;20441;-50
2022/06/12 03:58:17;;;;;;;14.77;7.50;;;;;;;13.29;87.00;102048.13;4992508;28;20468;-47
2022/06/12 04:00:48;;;;;;;8.90;6.80;;;;;;;13.21;87.32;102045.53;4992900;28;20462;-49
2022/06/12 04:03:24;;;;;;;16.47;7.50;;;;;;;13.16;88.19;102044.41;4993280;28;20484;-47
2022/06/12 04:05:57;;;;;;;15.67;6.93;;;;;;;13.17;88.82;102043.41;4993248;28;20421;-47
2022/06/12 04:08:34;;;;;;;11.70;6.70;;;;;;;13.19;89.73;102047.56;4992559;28;20994;-47
2022/06/12 04:11:03;;;;;;;15.00;7.67;;;;;;;13.25;89.96;102048.69;4992811;28;20484;-50
2022/06/12 04:13:31;;;;;;;14.30;6.80;;;;;;;13.30;90.62;102041.75;4993367;28;20442;-49
2022/06/12 04:16:04;;;;;;;13.80;7.93;;;;;;;13.37;90.78;102043.72;4993205;28;20832;-47
2022/06/12 04:18:34;;;;;;;10.00;7.70;;;;;;;13.41;91.12;102051.19;4992312;28;21002;-47
2022/06/12 04:21:08;;;;;;;22.40;7.67;;;;;;;13.48;91.14;102056.66;4992625;28;20564;-47
2022/06/12 04:23:42;;;;;;;17.33;6.83;;;;;;;13.58;91.68;102049.19;4992752;28;20887;-47
2022/06/12 04:26:19;;;;;;;15.00;6.60;;;;;;;13.69;92.10;102048.72;4993156;28;20787;-47
2022/06/12 04:28:56;;;;;;;15.40;6.10;;;;;;;13.82;92.06;102043.53;4992412;28;20484;-47
2022/06/12 04:31:24;;;;;;;11.47;7.23;;;;;;;13.92;91.70;102038.69;4992131;28;20488;-48
2022/06/12 04:34:11;;;;;;;9.30;6.47;;;;;;;14.05;91.57;102041.56;4984571;28;20468;-47
2022/06/12 04:36:41;;;;;;;17.20;6.77;;;;;;;14.09;90.88;102040.19;4992828;28;20433;-47
2022/06/12 04:39:12;;;;;;;14.57;6.67;;;;;;;14.19;90.91;102038.00;4992129;28;20476;-50
2022/06/12 04:41:40;;;;;;;13.80;6.20;;;;;;;14.29;90.88;102035.84;4992345;28;20452;-50
2022/06/12 04:44:08;;;;;;;16.70;6.50;;;;;;;14.39;90.97;102035.59;4992480;28;20446;-46
2022/06/12 04:46:40;;;;;;;17.50;6.17;;;;;;;14.47;90.64;102031.94;4992416;28;20484;-48
2022/06/12 04:49:08;;;;;;;15.13;7.37;;;;;;;14.60;90.71;102027.56;4992284;28;20516;-50
2022/06/12 04:51:35;;;;;;;15.77;7.50;;;;;;;14.78;90.27;102025.22;4992085;28;20975;-47
2022/06/12 04:54:05;;;;;;;14.37;6.53;;;;;;;14.82;89.90;102020.31;4992562;28;20771;-46
2022/06/12 04:56:34;;;;;;;20.87;7.20;;;;;;;14.84;88.83;102011.03;4992409;28;20434;-48
2022/06/12 04:59:02;;;;;;;14.63;5.63;;;;;;;14.88;88.68;102004.25;4991970;28;20836;-47
2022/06/12 05:01:32;;;;;;;13.87;6.37;;;;;;;14.98;89.07;102008.44;4996254;28;20845;-47
2022/06/12 05:04:01;;;;;;;12.20;6.67;;;;;;;15.08;88.94;102006.28;4996594;28;20470;-50
2022/06/12 05:06:29;;;;;;;20.43;7.90;;;;;;;15.16;88.00;102000.75;4996437;28;20444;-51
2022/06/12 05:08:57;;;;;;;15.20;6.80;;;;;;;15.27;87.75;101995.66;4996103;28;20480;-47
2022/06/12 05:11:26;;;;;;;13.30;5.83;;;;;;;15.37;87.71;102009.56;4996103;28;20836;-47
2022/06/12 05:13:54;;;;;;;11.83;6.70;;;;;;;15.53;87.70;102005.75;4996219;28;20445;-48
2022/06/12 05:16:30;;;;;;;16.73;7.30;;;;;;;15.66;85.52;102013.91;4996345;28;20433;-49
2022/06/12 05:18:57;;;;;;;18.43;6.80;;;;;;;15.61;83.30;102013.69;4994751;28;20470;-48
2022/06/12 05:21:26;;;;;;;11.23;6.10;;;;;;;16.01;86.02;102017.34;4995465;28;20457;-46
2022/06/12 05:23:53;;;;;;;15.80;7.20;;;;;;;16.34;85.09;102015.59;4996051;28;20441;-48
2022/06/12 05:26:21;;;;;;;12.67;5.90;;;;;;;16.58;83.75;102009.69;4996162;28;20429;-49
2022/06/12 05:28:50;;;;;;;10.73;5.20;;;;;;;17.06;83.53;102013.00;4978547;28;20461;-49
2022/06/12 05:31:18;;;;;;;10.80;6.47;;;;;;;17.26;81.39;102013.00;4978014;28;21161;-51
2022/06/12 05:33:47;;;;;;;19.87;6.27;;;;;;;17.31;76.13;102015.91;4987085;28;20440;-50
2022/06/12 05:36:23;;;;;;;16.03;6.23;;;;;;;17.48;75.76;102005.47;4995819;28;20429;-50
2022/06/12 05:38:51;;;;;;;14.70;6.00;;;;;;;17.68;76.92;102011.69;4995000;28;20988;-53
2022/06/12 05:41:20;;;;;;;14.60;6.43;;;;;;;17.89;77.19;102010.59;4995631;28;20468;-52
2022/06/12 05:43:48;;;;;;;9.40;5.70;;;;;;;18.06;76.39;102014.44;4995702;28;20437;-52
2022/06/12 05:46:18;;;;;;;12.07;5.90;;;;;;;18.30;76.42;102007.47;4995484;28;20931;-49
2022/06/12 05:48:47;;;;;;;10.87;5.73;;;;;;;18.92;77.63;102004.75;4994593;28;20467;-52
2022/06/12 05:51:16;;;;;;;12.50;5.70;;;;;;;20.71;76.43;101986.13;4995079;28;20455;-53
2022/06/12 05:53:45;;;;;;;11.67;5.90;;;;;;;22.43;73.67;101988.00;4995167;28;21000;-51
2022/06/12 05:56:15;;;;;;;12.10;6.87;;;;;;;24.25;70.05;101991.47;4995612;28;20429;-52
2022/06/12 05:58:44;;;;;;;11.53;6.43;;;;;;;25.44;56.13;101993.78;4994799;28;20467;-51
2022/06/12 06:01:15;;;;;;;15.87;6.47;;;;;;;26.65;54.69;101997.72;4994531;28;20467;-48
2022/06/12 06:03:45;;;;;;;9.87;6.27;;;;;;;27.85;49.41;101995.84;4995023;28;20439;-46
2022/06/12 06:06:17;;;;;;;10.57;6.20;;;;;;;27.36;46.24;102003.94;4995626;28;20433;-45
2022/06/12 06:08:45;;;;;;;14.67;6.27;;;;;;;26.47;47.17;102008.34;4977468;28;20464;-48
2022/06/12 06:11:13;;;;;;;13.50;6.87;;;;;;;25.45;48.33;102009.06;4986417;28;20455;-50
2022/06/12 06:13:41;;;;;;;11.70;6.30;;;;;;;24.71;49.36;101998.97;4994896;28;20871;-45
2022/06/12 06:16:08;;;;;;;10.10;6.70;;;;;;;23.78;49.27;101996.59;4994425;28;20441;-48
2022/06/12 06:18:39;;;;;;;14.60;7.30;;;;;;;22.95;50.85;102004.94;4971021;28;21030;-48
2022/06/12 06:21:09;;;;;;;11.57;6.60;;;;;;;22.42;52.42;102016.25;4994709;28;20449;-49
2022/06/12 06:23:36;;;;;;;12.97;6.90;;;;;;;22.02;53.88;102019.81;4994813;28;21222;-50
2022/06/12 06:26:04;;;;;;;23.97;8.87;;;;;;;21.59;55.59;102010.47;4994976;28;20433;-52
2022/06/12 06:28:33;;;;;;;13.50;7.10;;;;;;;21.22;55.63;102005.31;4994088;28;20465;-49
2022/06/12 06:31:01;;;;;;;14.03;6.90;;;;;;;21.13;57.90;102005.91;4993147;28;20593;-52
2022/06/12 06:33:28;;;;;;;12.57;6.03;;;;;;;21.12;57.77;102007.78;4986467;28;20473;-49
2022/06/12 06:35:56;;;;;;;11.57;6.13;;;;;;;21.31;56.50;101995.75;4994433;28;20958;-47
2022/06/12 06:38:25;;;;;;;16.27;6.47;;;;;;;21.41;57.80;101995.16;4985613;28;20455;-52
2022/06/12 06:40:53;;;;;;;15.23;6.50;;;;;;;21.10;56.98;101995.50;4985206;28;20442;-52
2022/06/12 06:43:20;;;;;;;14.23;6.50;;;;;;;20.84;58.18;101992.19;4975363;28;20434;-49
2022/06/12 06:48:33;;;;;;;13.47;6.47;;;;;;;20.53;59.92;101992.47;4974746;28;20486;-50
2022/06/12 06:51:01;;;;;;;15.53;6.00;;;;;;;20.84;60.46;102004.91;4974767;28;20979;-51
2022/06/12 06:53:30;;;;;;;14.47;7.27;;;;;;;22.03;55.63;101997.03;4974899;28;20484;-52
2022/06/12 06:55:57;;;;;;;8.10;5.17;;;;;;;22.03;56.18;101996.22;4974890;28;20442;-53
2022/06/12 06:58:26;;;;;;;10.07;5.20;;;;;;;23.28;52.93;101999.44;4974321;28;20463;-46
2022/06/12 07:00:55;;;;;;;8.20;5.07;;;;;;;24.20;50.69;101991.38;4982524;28;20465;-51
2022/06/12 07:03:22;;;;;;;8.60;4.17;;;;;;;24.45;47.31;101985.38;4980308;28;20438;-54
2022/06/12 07:05:52;;;;;;;13.07;4.93;;;;;;;25.16;45.42;101982.13;4980176;28;20461;-50
2022/06/12 07:08:21;;;;;;;14.50;5.93;;;;;;;25.75;43.52;101990.09;4991096;28;20472;-50
2022/06/12 07:10:51;;;;;;;7.53;4.30;;;;;;;25.31;44.57;101984.13;4973609;28;20457;-53
2022/06/12 07:13:19;;;;;;;7.80;5.20;;;;;;;24.66;44.91;101984.47;4978957;28;20839;-48
2022/06/12 07:15:48;;;;;;;9.87;5.10;;;;;;;24.15;46.94;101988.63;4985886;28;20449;-53
2022/06/12 07:18:17;;;;;;;9.03;4.83;;;;;;;23.63;46.93;101978.19;4973489;28;20468;-50
2022/06/12 07:20:48;;;;;;;10.53;4.67;;;;;;;23.32;48.37;101994.34;4975540;28;20457;-52
2022/06/12 07:23:19;;;;;;;8.93;5.93;;;;;;;23.05;48.33;101983.34;4978051;28;20436;-52
2022/06/12 07:25:53;;;;;;;10.30;5.37;;;;;;;22.94;49.75;101990.50;4983226;28;20816;-47
2022/06/12 07:28:22;;;;;;;9.37;4.93;;;;;;;24.08;48.39;101983.34;4972459;28;21658;-46
2022/06/12 07:30:51;;;;;;;11.77;5.60;;;;;;;25.14;48.40;101980.75;4972874;28;20482;-51
2022/06/12 07:33:20;;;;;;;7.30;4.67;;;;;;;26.00;47.09;101990.19;4982622;28;20485;-52
2022/06/12 07:35:48;;;;;;;7.60;4.47;;;;;;;26.81;46.13;101982.97;4992621;28;20950;-53
2022/06/12 07:38:20;;;;;;;12.13;6.20;;;;;;;27.02;42.10;101985.69;4991749;28;21036;-50
2022/06/12 07:40:51;;;;;;;8.07;4.70;;;;;;;27.70;43.00;101971.25;4976678;28;20470;-47
2022/06/12 07:43:19;;;;;;;9.13;5.00;;;;;;;27.70;43.58;101974.00;4960961;28;20813;-49
2022/06/12 07:45:47;;;;;;;6.43;4.43;;;;;;;27.92;40.38;101965.38;4988540;28;20205;-49
2022/06/12 07:48:16;;;;;;;6.80;5.20;;;;;;;27.98;39.82;101965.09;4978942;28;20501;-47
2022/06/12 07:50:47;;;;;;;9.33;5.23;;;;;;;27.97;40.54;101968.91;4985336;28;20458;-49
2022/06/12 07:53:17;;;;;;;9.17;6.20;;;;;;;27.93;41.21;101973.31;4973037;28;20478;-47
2022/06/12 07:55:45;;;;;;;6.63;5.10;;;;;;;27.38;40.25;101979.84;4980132;28;20203;-49
2022/06/12 07:58:14;;;;;;;11.37;5.30;;;;;;;27.38;41.59;101970.81;4976459;28;20794;-47
2022/06/12 08:00:47;;;;;;;12.20;5.40;;;;;;;27.19;41.83;101967.84;4972842;28;20462;-50
2022/06/12 08:03:15;;;;;;;7.17;5.23;;;;;;;27.23;41.85;101977.16;4973589;28;20970;-49
2022/06/12 08:05:43;;;;;;;9.27;5.50;;;;;;;26.93;42.11;101969.81;4992731;28;20807;-49
2022/06/12 08:08:11;;;;;;;8.97;5.97;;;;;;;26.85;41.86;101980.50;4980397;28;20474;-47
2022/06/12 08:10:39;;;;;;;12.67;5.10;;;;;;;26.82;43.08;101973.66;4978361;28;20443;-50
2022/06/12 08:13:10;;;;;;;8.50;5.57;;;;;;;26.46;42.45;101979.38;4972474;28;20485;-49
2022/06/12 08:15:44;;;;;;;10.43;5.57;;;;;;;26.53;43.02;101972.53;4972557;28;20804;-46
2022/06/12 08:18:13;;;;;;;7.03;5.50;;;;;;;26.11;43.70;101975.47;4971825;28;21021;-49
2022/06/12 08:20:45;;;;;;;10.10;5.30;;;;;;;25.94;43.94;101980.34;4972371;28;20501;-48
2022/06/12 08:23:27;;;;;;;12.07;5.67;;;;;;;25.68;44.72;101967.69;4972387;28;20437;-47
2022/06/12 08:25:55;;;;;;;8.57;5.17;;;;;;;25.76;45.26;101965.25;4972545;28;20473;-44
2022/06/12 08:28:24;;;;;;;9.20;5.30;;;;;;;25.28;45.81;101977.31;4971920;28;20470;-50
2022/06/12 08:30:54;;;;;;;10.40;6.10;;;;;;;25.22;45.80;101969.34;4972204;28;20497;-46
2022/06/12 08:33:22;;;;;;;11.83;6.00;;;;;;;24.78;48.20;101972.31;4982919;28;20472;-46
2022/06/12 08:35:51;;;;;;;8.07;5.40;;;;;;;25.20;46.77;101960.59;4988302;28;20441;-47
2022/06/12 08:38:19;;;;;;;9.30;5.63;;;;;;;25.18;46.85;101963.59;4982049;28;20982;-46
2022/06/12 08:40:53;;;;;;;12.20;4.83;;;;;;;25.31;46.60;101954.09;4991467;28;20453;-48
2022/06/12 08:43:28;;;;;;;10.67;5.40;;;;;;;25.37;46.89;101957.69;4983775;28;20434;-49
2022/06/12 08:46:01;;;;;;;11.73;5.60;;;;;;;25.49;45.75;101959.13;4972271;28;20441;-47
2022/06/12 08:48:35;;;;;;;13.37;5.27;;;;;;;25.62;45.28;101963.28;4971159;28;20978;-47
2022/06/12 08:51:10;;;;;;;12.13;5.93;;;;;;;25.59;46.04;101959.19;4971737;28;20449;-45
2022/06/12 08:53:46;;;;;;;11.17;5.27;;;;;;;25.29;45.40;101961.75;4971797;28;20476;-45
2022/06/12 08:56:18;;;;;;;9.90;5.43;;;;;;;24.84;45.96;101954.09;4972382;28;20430;-46
2022/06/12 08:58:50;;;;;;;13.03;6.07;;;;;;;24.94;46.49;101962.34;4982119;28;20462;-47
2022/06/12 09:01:19;;;;;;;11.57;5.40;;;;;;;24.79;46.15;101954.84;4997902;23;20514;-45
2022/06/12 09:03:50;;;;;;;11.13;4.70;;;;;;;24.68;47.12;101957.75;5012760;28;20428;-45
2022/06/12 09:06:28;;;;;;;11.30;4.60;;;;;;;24.37;46.93;101958.59;5011115;28;20425;-42
2022/06/12 09:09:01;;;;;;;9.47;4.83;;;;;;;24.19;47.08;101946.94;5010253;28;20467;-46
2022/06/12 09:11:34;;;;;;;5.30;4.30;;;;;;;24.36;47.78;101941.41;5011236;28;20475;-47
2022/06/12 09:14:11;;;;;;;7.13;4.90;;;;;;;24.70;47.12;101948.22;5005476;28;20483;-44
2022/06/12 09:16:48;;;;;;;8.00;4.40;;;;;;;24.54;45.85;101934.72;5010976;28;20436;-44
2022/06/12 09:19:26;;;;;;;9.30;4.97;;;;;;;24.81;46.23;101942.88;5009912;28;20464;-46
2022/06/12 09:22:02;;;;;;;4.40;4.00;;;;;;;24.91;45.90;101937.50;5011151;28;20459;-48
2022/06/12 09:24:38;;;;;;;8.03;4.67;;;;;;;25.18;45.24;101935.44;5009616;28;20428;-47
2022/06/12 09:27:12;;;;;;;6.20;4.27;;;;;;;25.29;44.34;101928.97;5004749;28;20443;-45
2022/06/12 09:29:51;;;;;;;7.17;4.40;;;;;;;25.44;44.46;101930.97;5010282;28;20436;-46
2022/06/12 09:32:32;;;;;;;5.47;3.97;;;;;;;25.69;43.28;101920.13;5010587;28;20543;-46
2022/06/12 09:35:19;;;;;;;11.60;4.50;;;;;;;26.22;43.32;101933.38;5011031;28;20479;-45
2022/06/12 09:38:19;;;;;;;5.47;4.30;;;;;;;26.65;42.17;101936.69;5010084;28;21014;-45
2022/06/12 09:41:02;;;;;;;6.17;4.80;;;;;;;26.74;41.22;101927.66;5010402;28;20438;-43
2022/06/12 09:43:37;;;;;;;9.17;4.50;;;;;;;26.04;42.68;101930.34;5010710;28;20444;-46
2022/06/12 09:46:16;;;;;;;8.60;3.87;;;;;;;26.22;42.53;101927.13;5012134;28;20428;-51
2022/06/12 09:48:56;;;;;;;11.67;4.53;;;;;;;26.14;44.09;101924.88;5012223;28;20460;-46
2022/06/12 09:51:38;;;;;;;7.60;4.27;;;;;;;25.88;43.18;101932.22;5012658;28;20817;-44
2022/06/12 09:54:20;;;;;;;7.43;3.80;;;;;;;26.05;42.66;101929.25;5014233;28;20472;-46
2022/06/12 09:56:54;;;;;;;8.23;4.77;;;;;;;26.00;43.18;101929.25;5014030;28;20439;-45
2022/06/12 09:59:27;;;;;;;9.80;4.43;;;;;;;26.45;43.00;101933.97;5012575;28;20463;-46
2022/06/12 10:01:58;;;;;;;5.77;4.50;;;;;;;26.32;42.44;101924.38;5014189;28;20472;-49
2022/06/12 10:04:36;;;;;;;8.93;4.17;;;;;;;25.95;43.00;101931.97;5012709;28;20425;-44
2022/06/12 10:07:10;;;;;;;11.10;4.90;;;;;;;25.98;42.58;101921.31;5013313;28;20798;-43
2022/06/12 10:09:41;;;;;;;10.30;5.83;;;;;;;25.56;43.17;101923.38;5013382;28;20452;-44
2022/06/12 10:12:15;;;;;;;8.30;4.50;;;;;;;25.41;43.38;101915.94;5013913;28;20459;-46
2022/06/12 10:14:45;;;;;;;12.73;5.00;;;;;;;25.52;44.13;101919.53;5013565;28;20830;-44
2022/06/12 10:17:19;;;;;;;6.80;4.63;;;;;;;25.41;43.25;101915.94;5013182;28;20432;-47
2022/06/12 10:19:52;;;;;;;6.80;5.00;;;;;;;25.86;44.35;101918.81;5012898;28;20438;-47
2022/06/12 10:22:25;;;;;;;7.40;5.03;;;;;;;25.52;44.30;101911.34;5013740;28;20826;-45
2022/06/12 10:24:53;;;;;;;12.80;5.60;;;;;;;25.24;45.15;101913.38;5013801;28;21320;-43
2022/06/12 10:27:21;;;;;;;9.70;5.27;;;;;;;24.96;44.71;101902.88;5013219;28;20459;-44
2022/06/12 10:29:51;;;;;;;7.13;5.03;;;;;;;24.86;44.80;101910.16;5013042;28;20428;-44
2022/06/12 10:32:21;;;;;;;8.30;4.80;;;;;;;25.27;43.73;101896.47;5012938;28;20457;-44
2022/06/12 10:34:51;;;;;;;5.90;4.80;;;;;;;25.00;44.84;101903.97;5013400;28;20472;-46
2022/06/12 10:37:23;;;;;;;11.20;5.10;;;;;;;25.11;45.77;101902.97;5013092;28;22155;-43
2022/06/12 10:40:01;;;;;;;8.63;4.93;;;;;;;25.25;44.63;101897.81;5012985;28;20432;-44
2022/06/12 10:42:48;;;;;;;10.10;4.53;;;;;;;25.44;43.48;101900.91;5013078;28;20821;-45
2022/06/12 10:45:21;;;;;;;9.37;4.67;;;;;;;25.80;42.41;101895.34;5013553;28;20429;-47
2022/06/12 10:47:51;;;;;;;7.47;4.33;;;;;;;25.31;43.19;101897.59;5012470;28;20997;-43
2022/06/12 10:50:24;;;;;;;8.13;5.00;;;;;;;24.78;44.17;101904.09;5012386;28;20794;-44
2022/06/12 10:52:58;;;;;;;7.47;4.67;;;;;;;24.63;45.25;101898.53;5013082;28;20898;-47
2022/06/12 10:55:42;;;;;;;7.20;4.73;;;;;;;25.20;45.48;101895.09;5012769;28;21105;-43
2022/06/12 10:58:25;;;;;;;9.70;5.07;;;;;;;25.19;45.28;101902.44;5015077;28;20464;-49
2022/06/12 11:00:55;;;;;;;9.57;4.53;;;;;;;24.79;45.17;101893.97;5012805;28;20432;-43
2022/06/12 11:03:35;;;;;;;9.73;5.57;;;;;;;24.37;44.43;101901.34;5012420;28;20436;-45
2022/06/12 11:06:12;;;;;;;6.27;4.37;;;;;;;23.69;45.08;101895.47;5010131;28;20787;-46
2022/06/12 11:09:02;;;;;;;7.17;4.93;;;;;;;23.43;45.66;101904.41;5011947;28;20888;-44
2022/06/12 11:11:47;;;;;;;7.03;4.47;;;;;;;23.19;45.64;101896.72;5012515;28;20458;-43
2022/06/12 11:14:28;;;;;;;8.73;4.23;;;;;;;23.07;46.73;101889.50;5012542;28;20432;-45
2022/06/12 11:17:07;;;;;;;7.83;4.40;;;;;;;23.39;45.49;101886.94;5012031;28;20432;-44
2022/06/12 11:19:46;;;;;;;6.13;4.27;;;;;;;23.34;46.08;101892.28;5011810;28;20461;-44
2022/06/12 11:22:30;;;;;;;6.50;4.40;;;;;;;22.98;46.11;101877.41;5012518;28;20495;-44
2022/06/12 11:25:11;;;;;;;11.00;5.50;;;;;;;23.63;46.95;101885.59;5010749;28;20417;-44
2022/06/12 11:27:54;;;;;;;10.63;4.67;;;;;;;23.77;44.82;101879.75;5011625;28;20473;-45
2022/06/12 11:30:37;;;;;;;5.33;4.30;;;;;;;23.58;46.41;101876.53;5011595;28;21014;-45
2022/06/12 11:33:18;;;;;;;10.70;5.10;;;;;;;24.10;46.95;101887.72;5011116;28;20460;-46
2022/06/12 11:35:54;;;;;;;5.40;4.67;;;;;;;24.57;44.28;101882.41;5012412;28;20928;-46
2022/06/12 11:38:39;;;;;;;13.27;4.80;;;;;;;24.92;41.86;101884.53;5011443;28;20460;-43
2022/06/12 11:41:15;;;;;;;4.57;4.00;;;;;;;24.56;42.59;101880.75;5011881;28;20556;-46
2022/06/12 11:43:45;;;;;;;6.40;4.13;;;;;;;24.45;43.16;101884.47;5011994;28;20432;-44
2022/06/12 11:46:24;;;;;;;6.70;3.87;;;;;;;24.30;43.54;101882.47;5011455;28;20432;-44
2022/06/12 11:49:43;;;;;;;7.60;4.63;;;;;;;24.38;43.25;101883.88;5011027;28;20484;-46
2022/06/12 11:52:25;;;;;;;8.03;3.83;;;;;;;23.93;44.14;101893.25;4937835;29;20455;-47
2022/06/12 11:55:10;;;;;;;4.87;4.47;;;;;;;23.90;43.93;101895.66;5001119;28;20967;-47